createdAt,value
2023-02-17T00:01:12.092Z,29.63
2023-02-17T00:03:40.008Z,29.70
2023-02-17T00:06:10.769Z,33.80
2023-02-17T00:08:39.324Z,34.57
2023-02-17T00:11:08.166Z,28.60
2023-02-17T00:13:36.070Z,35.07
2023-02-17T00:16:08.180Z,32.23
2023-02-17T00:18:36.544Z,32.33
2023-02-17T00:21:15.706Z,33.43
2023-02-17T00:23:43.582Z,29.87
2023-02-17T00:26:11.869Z,29.67
2023-02-17T00:28:39.754Z,32.97
2023-02-17T00:31:09.148Z,31.50
2023-02-17T00:33:37.106Z,30.23
2023-02-17T00:36:07.514Z,34.10
2023-02-17T00:38:36.937Z,34.93
2023-02-17T00:41:05.089Z,35.83
2023-02-17T00:43:33.203Z,38.37
2023-02-17T00:46:03.536Z,35.43
2023-02-17T00:48:31.745Z,36.50
2023-02-17T00:51:00.045Z,31.43
2023-02-17T00:53:27.858Z,33.13
2023-02-17T00:55:57.401Z,32.97
2023-02-17T00:58:26.223Z,37.53
2023-02-17T01:00:54.396Z,36.40
2023-02-17T01:03:22.378Z,31.00
2023-02-17T01:05:51.496Z,34.63
2023-02-17T01:08:19.999Z,36.60
2023-02-17T01:10:52.399Z,35.20
2023-02-17T01:13:21.830Z,36.80
2023-02-17T01:15:51.819Z,37.77
2023-02-17T01:18:21.765Z,35.60
2023-02-17T01:20:49.815Z,37.83
2023-02-17T01:23:17.638Z,36.60
2023-02-17T01:25:47.748Z,35.23
2023-02-17T01:28:17.535Z,38.10
2023-02-17T01:30:47.239Z,41.90
2023-02-17T01:33:15.864Z,40.13
2023-02-17T01:35:43.904Z,34.53
2023-02-17T01:38:11.804Z,36.67
2023-02-17T01:40:47.823Z,39.03
2023-02-17T01:43:17.656Z,33.47
2023-02-17T01:45:52.354Z,39.63
2023-02-17T01:48:22.953Z,43.40
2023-02-17T01:50:54.295Z,37.13
2023-02-17T01:53:26.181Z,35.87
2023-02-17T01:55:54.934Z,32.37
2023-02-17T01:58:26.009Z,37.60
2023-02-17T02:00:58.464Z,36.47
2023-02-17T02:03:28.319Z,41.23
2023-02-17T02:05:57.020Z,36.90
2023-02-17T02:08:25.181Z,32.57
2023-02-17T02:10:53.210Z,36.60
2023-02-17T02:13:21.109Z,38.67
2023-02-17T02:15:55.171Z,39.50
2023-02-17T02:18:39.314Z,36.13
2023-02-17T02:21:31.344Z,35.80
2023-02-17T02:24:31.420Z,38.73
2023-02-17T02:27:35.506Z,37.17
2023-02-17T02:30:33.540Z,43.47
2023-02-17T02:33:09.165Z,37.40
2023-02-17T02:35:46.417Z,39.73
2023-02-17T02:38:19.270Z,38.17
2023-02-17T02:40:51.041Z,37.97
2023-02-17T02:43:19.608Z,48.37
2023-02-17T02:45:48.337Z,40.27
2023-02-17T02:48:17.516Z,37.97
2023-02-17T02:51:04.900Z,39.43
2023-02-17T02:53:53.670Z,39.53
2023-02-17T02:56:34.090Z,40.63
2023-02-17T02:59:14.038Z,38.30
2023-02-17T03:01:52.657Z,44.73
2023-02-17T03:04:31.831Z,43.37
2023-02-17T03:07:04.597Z,42.63
2023-02-17T03:09:33.015Z,43.33
2023-02-17T03:12:00.961Z,44.70
2023-02-17T03:14:30.067Z,43.70
2023-02-17T03:16:59.006Z,42.37
2023-02-17T03:19:29.875Z,43.60
2023-02-17T03:22:09.043Z,39.90
2023-02-17T03:24:37.100Z,45.00
2023-02-17T03:27:05.094Z,44.27
2023-02-17T03:29:32.936Z,42.70
2023-02-17T03:32:01.522Z,40.90
2023-02-17T03:34:30.893Z,45.17
2023-02-17T03:36:58.939Z,45.93
2023-02-17T03:39:27.478Z,43.13
2023-02-17T03:41:55.285Z,38.80
2023-02-17T03:44:23.079Z,43.17
2023-02-17T03:46:51.108Z,44.23
2023-02-17T03:49:19.190Z,39.87
2023-02-17T03:51:48.550Z,45.77
2023-02-17T03:54:16.418Z,50.10
2023-02-17T03:56:44.193Z,42.33
2023-02-17T03:59:12.073Z,47.53
2023-02-17T04:01:40.164Z,47.87
2023-02-17T04:04:08.160Z,48.33
2023-02-17T04:06:35.973Z,43.37
2023-02-17T04:09:05.565Z,43.97
2023-02-17T04:11:33.597Z,41.73
2023-02-17T04:14:01.494Z,42.93
2023-02-17T04:16:29.380Z,46.70
2023-02-17T04:18:57.466Z,48.03
2023-02-17T04:21:25.338Z,44.93
2023-02-17T04:23:54.524Z,51.40
2023-02-17T04:26:23.876Z,43.00
2023-02-17T04:28:51.675Z,42.80
2023-02-17T04:31:19.676Z,44.63
2023-02-17T04:33:47.718Z,47.27
2023-02-17T04:36:16.814Z,42.93
2023-02-17T04:38:44.781Z,40.87
2023-02-17T04:41:12.821Z,45.80
2023-02-17T04:43:41.970Z,43.47
2023-02-17T04:46:11.849Z,42.77
2023-02-17T04:48:40.025Z,41.90
2023-02-17T04:51:08.003Z,41.07
2023-02-17T04:53:35.958Z,45.53
2023-02-17T04:56:04.200Z,41.00
2023-02-17T04:58:32.892Z,45.17
2023-02-17T05:01:02.074Z,41.93
2023-02-17T05:03:30.009Z,41.27
2023-02-17T05:05:58.604Z,48.23
2023-02-17T05:08:26.529Z,47.87
2023-02-17T05:10:54.385Z,42.53
2023-02-17T05:13:22.511Z,45.83
2023-02-17T05:15:50.597Z,41.23
2023-02-17T05:18:20.061Z,42.13
2023-02-17T05:20:47.882Z,40.80
2023-02-17T05:23:15.775Z,44.87
2023-02-17T05:25:43.535Z,42.00
2023-02-17T05:28:11.845Z,41.63
2023-02-17T05:30:39.664Z,43.73
2023-02-17T05:33:07.528Z,40.97
2023-02-17T05:35:37.619Z,38.13
2023-02-17T05:38:05.433Z,46.87
2023-02-17T05:40:33.407Z,41.40
2023-02-17T05:43:01.369Z,42.27
2023-02-17T05:45:29.473Z,37.00
2023-02-17T05:47:57.504Z,42.30
2023-02-17T05:50:25.593Z,40.97
2023-02-17T05:52:55.186Z,43.17
2023-02-17T05:55:23.388Z,40.47
2023-02-17T05:57:51.184Z,39.23
2023-02-17T06:00:19.369Z,42.50
2023-02-17T06:02:47.609Z,40.53
2023-02-17T06:05:15.655Z,46.87
2023-02-17T06:07:43.666Z,39.47
2023-02-17T06:10:13.216Z,39.40
2023-02-17T06:12:41.084Z,44.67
2023-02-17T06:15:09.351Z,40.47
2023-02-17T06:17:37.302Z,38.20
2023-02-17T06:20:06.171Z,39.83
2023-02-17T06:22:34.107Z,38.57
2023-02-17T06:25:02.209Z,38.57
2023-02-17T06:27:31.436Z,39.37
2023-02-17T06:29:59.332Z,43.10
2023-02-17T06:32:27.502Z,35.03
2023-02-17T06:34:55.436Z,32.53
2023-02-17T06:37:23.498Z,35.27
2023-02-17T06:39:51.468Z,56.83
2023-02-17T06:42:19.263Z,36.63
2023-02-17T06:44:48.633Z,35.80
2023-02-17T06:47:20.010Z,34.57
2023-02-17T06:49:47.764Z,35.10
2023-02-17T06:52:15.677Z,33.20
2023-02-17T06:54:43.457Z,34.53
2023-02-17T06:57:11.302Z,32.33
2023-02-17T06:59:39.297Z,30.83
2023-02-17T07:02:12.316Z,31.87
2023-02-17T07:04:40.544Z,31.60
2023-02-17T07:07:08.546Z,33.27
2023-02-17T07:09:36.374Z,28.43
2023-02-17T07:12:04.547Z,28.13
2023-02-17T07:14:34.312Z,27.57
2023-02-17T07:17:02.704Z,27.73
2023-02-17T07:19:32.158Z,25.43
2023-02-17T07:22:00.110Z,26.73
2023-02-17T07:24:28.156Z,32.10
2023-02-17T07:26:56.265Z,27.80
2023-02-17T07:29:24.483Z,27.03
2023-02-17T07:31:52.481Z,31.23
2023-02-17T07:34:20.420Z,28.57
2023-02-17T07:36:49.797Z,28.43
2023-02-17T07:39:17.880Z,44.97
2023-02-17T07:41:45.682Z,36.83
2023-02-17T07:44:13.424Z,26.50
2023-02-17T07:46:41.462Z,25.77
2023-02-17T07:49:09.585Z,23.40
2023-02-17T07:51:37.344Z,26.70
2023-02-17T07:54:06.872Z,28.47
2023-02-17T07:56:34.663Z,25.43
2023-02-17T07:59:02.544Z,22.13
2023-02-17T08:01:30.436Z,29.67
2023-02-17T08:03:58.541Z,24.67
2023-02-17T08:06:26.867Z,25.07
2023-02-17T08:09:13.250Z,22.60
2023-02-17T08:12:01.509Z,22.77
2023-02-17T08:14:31.373Z,23.37
2023-02-17T08:16:59.283Z,23.77
2023-02-17T08:19:33.823Z,21.37
2023-02-17T08:22:10.830Z,20.50
2023-02-17T08:24:38.613Z,23.57
2023-02-17T08:27:07.812Z,18.50
2023-02-17T08:29:37.398Z,20.67
2023-02-17T08:32:05.756Z,25.83
2023-02-17T08:34:34.619Z,22.57
2023-02-17T08:37:02.659Z,22.57
2023-02-17T08:39:33.936Z,21.40
2023-02-17T08:42:02.405Z,19.30
2023-02-17T08:44:31.808Z,21.57
2023-02-17T08:46:59.543Z,21.17
2023-02-17T08:49:30.123Z,22.50
2023-02-17T08:51:58.166Z,20.93
2023-02-17T08:54:26.159Z,20.77
2023-02-17T08:56:54.431Z,21.80
2023-02-17T08:59:22.418Z,20.33
2023-02-17T09:01:52.157Z,25.37
2023-02-17T09:04:20.148Z,26.07
2023-02-17T09:06:50.671Z,25.13
2023-02-17T09:09:22.402Z,20.87
2023-02-17T09:11:50.819Z,22.53
2023-02-17T09:14:18.599Z,23.90
2023-02-17T09:16:46.403Z,28.03
2023-02-17T09:19:15.729Z,20.83
2023-02-17T09:21:43.742Z,20.63
2023-02-17T09:24:11.726Z,20.67
2023-02-17T09:26:39.486Z,19.47
2023-02-17T09:29:08.362Z,20.73
2023-02-17T09:31:37.747Z,21.67
2023-02-17T09:34:06.648Z,21.33
2023-02-17T09:36:41.337Z,21.10
2023-02-17T09:39:12.396Z,22.20
2023-02-17T09:41:45.000Z,20.47
2023-02-17T09:44:20.613Z,23.53
2023-02-17T09:47:02.241Z,21.10
2023-02-17T09:49:37.841Z,20.17
2023-02-17T09:52:13.054Z,22.27
2023-02-17T09:54:50.626Z,21.80
2023-02-17T09:57:23.289Z,22.77
2023-02-17T09:59:56.597Z,18.37
2023-02-17T10:02:30.853Z,24.03
2023-02-17T10:05:04.183Z,22.80
2023-02-17T10:07:38.125Z,21.60
2023-02-17T10:10:11.509Z,21.63
2023-02-17T10:12:44.634Z,24.40
2023-02-17T10:15:18.140Z,24.27
2023-02-17T10:17:51.843Z,20.70
2023-02-17T10:20:24.677Z,23.90
2023-02-17T10:22:58.889Z,21.27
2023-02-17T10:25:42.623Z,21.43
2023-02-17T10:28:16.474Z,20.93
2023-02-17T10:30:56.176Z,21.43
2023-02-17T10:33:30.475Z,23.60
2023-02-17T10:36:09.485Z,22.20
2023-02-17T10:38:49.865Z,21.23
2023-02-17T10:41:22.476Z,24.13
2023-02-17T10:43:51.441Z,21.17
2023-02-17T10:46:23.136Z,23.10
2023-02-17T10:48:53.680Z,22.83
2023-02-17T10:51:24.561Z,19.67
2023-02-17T10:53:58.798Z,22.03
2023-02-17T10:56:33.766Z,21.47
2023-02-17T10:59:06.572Z,25.37
2023-02-17T11:01:35.510Z,24.47
2023-02-17T11:04:05.867Z,22.97
2023-02-17T11:06:38.433Z,23.40
2023-02-17T11:09:18.281Z,26.90
2023-02-17T11:11:54.130Z,21.87
2023-02-17T11:14:27.191Z,29.03
2023-02-17T11:16:59.435Z,20.30
2023-02-17T11:19:29.872Z,20.40
2023-02-17T11:21:59.741Z,20.13
2023-02-17T11:24:31.582Z,22.37
2023-02-17T11:27:02.231Z,18.67
2023-02-17T11:29:30.691Z,19.87
2023-02-17T11:32:01.277Z,19.80
2023-02-17T11:34:32.990Z,22.17
2023-02-17T11:37:03.490Z,21.40
2023-02-17T11:39:39.834Z,18.30
2023-02-17T11:42:16.643Z,19.63
2023-02-17T11:44:44.654Z,18.30
2023-02-17T11:47:24.072Z,18.30
2023-02-17T11:50:06.695Z,19.63
2023-02-17T11:52:50.451Z,20.93
2023-02-17T11:55:28.371Z,16.30
2023-02-17T11:58:14.624Z,16.47
2023-02-17T12:00:49.827Z,15.20
2023-02-17T12:03:50.282Z,15.70
2023-02-17T12:06:24.056Z,14.63
2023-02-17T12:09:10.936Z,12.03
2023-02-17T12:11:50.338Z,14.07
2023-02-17T12:14:41.128Z,13.13
2023-02-17T12:17:18.956Z,12.93
2023-02-17T12:19:55.320Z,12.23
2023-02-17T12:22:30.724Z,13.43
2023-02-17T12:25:16.778Z,13.50
2023-02-17T12:27:58.103Z,14.10
2023-02-17T12:30:40.354Z,11.47
2023-02-17T12:33:22.889Z,12.27
2023-02-17T12:35:53.264Z,10.90
2023-02-17T12:38:26.778Z,14.23
2023-02-17T12:40:59.569Z,10.07
2023-02-17T12:43:33.622Z,10.77
2023-02-17T12:46:06.804Z,14.90
2023-02-17T12:48:39.274Z,13.30
2023-02-17T12:51:13.019Z,11.03
2023-02-17T12:53:46.278Z,13.00
2023-02-17T12:56:41.005Z,10.73
2023-02-17T12:59:16.920Z,10.17
2023-02-17T13:01:54.180Z,9.83
2023-02-17T13:04:26.298Z,10.20
2023-02-17T13:07:08.116Z,8.00
2023-02-17T13:09:38.306Z,11.77
2023-02-17T13:12:19.723Z,10.90
2023-02-17T13:14:51.808Z,8.20
2023-02-17T13:17:36.334Z,8.40
2023-02-17T13:20:25.659Z,9.60
2023-02-17T13:23:05.639Z,8.93
2023-02-17T13:25:37.661Z,11.33
2023-02-17T13:28:34.785Z,9.13
2023-02-17T13:31:17.654Z,7.00
2023-02-17T13:33:49.517Z,9.07
2023-02-17T13:36:22.375Z,9.07
2023-02-17T13:38:56.845Z,10.37
2023-02-17T13:41:24.984Z,10.90
2023-02-17T13:43:52.944Z,6.97
2023-02-17T13:46:26.216Z,9.40
2023-02-17T13:49:03.114Z,7.97
2023-02-17T13:51:35.357Z,9.30
2023-02-17T13:54:08.087Z,6.37
2023-02-17T13:56:35.991Z,9.37
2023-02-17T13:59:12.856Z,7.50
2023-02-17T14:01:43.963Z,7.23
2023-02-17T14:04:21.992Z,6.73
2023-02-17T14:06:50.643Z,7.50
2023-02-17T14:09:23.984Z,7.43
2023-02-17T14:11:53.185Z,4.53
2023-02-17T14:14:23.012Z,5.53
2023-02-17T14:17:01.778Z,5.27
2023-02-17T14:19:30.718Z,6.43
2023-02-17T14:22:02.404Z,5.20
2023-02-17T14:24:33.091Z,6.67
2023-02-17T14:27:03.240Z,5.77
2023-02-17T14:29:42.069Z,5.93
2023-02-17T14:32:29.985Z,5.17
2023-02-17T14:35:09.492Z,7.23
2023-02-17T14:37:37.411Z,5.13
2023-02-17T14:40:07.992Z,5.43
2023-02-17T14:42:35.941Z,7.53
2023-02-17T14:45:03.855Z,8.23
2023-02-17T14:47:33.364Z,8.40
2023-02-17T14:50:01.089Z,6.50
2023-02-17T14:52:29.678Z,5.87
2023-02-17T14:55:00.912Z,6.43
2023-02-17T14:57:29.603Z,7.87
2023-02-17T14:59:57.800Z,8.90
2023-02-17T15:02:25.989Z,7.00
2023-02-17T15:04:55.319Z,7.60
2023-02-17T15:07:24.208Z,9.90
2023-02-17T15:09:51.993Z,8.53
2023-02-17T15:12:22.203Z,10.43
2023-02-17T15:14:50.058Z,7.90
2023-02-17T15:17:18.021Z,11.97
2023-02-17T15:19:45.838Z,10.30
2023-02-17T15:22:15.493Z,12.70
2023-02-17T15:24:43.395Z,8.63
2023-02-17T15:27:15.395Z,11.13
2023-02-17T15:29:43.348Z,9.13
2023-02-17T15:32:18.945Z,9.37
2023-02-17T15:34:47.094Z,9.47
2023-02-17T15:37:16.567Z,11.73
2023-02-17T15:39:44.439Z,10.17
2023-02-17T15:42:14.757Z,11.30
2023-02-17T15:44:45.191Z,12.07
2023-02-17T15:47:17.103Z,10.87
2023-02-17T15:49:45.309Z,12.03
2023-02-17T15:52:14.226Z,11.37
2023-02-17T15:54:44.318Z,13.80
2023-02-17T15:57:21.821Z,15.47
2023-02-17T15:59:49.718Z,10.70
2023-02-17T16:02:21.436Z,12.10
2023-02-17T16:04:49.559Z,11.07
2023-02-17T16:07:17.485Z,11.63
2023-02-17T16:09:46.714Z,11.73
2023-02-17T16:12:26.403Z,12.67
2023-02-17T16:14:54.557Z,11.47
2023-02-17T16:17:22.354Z,13.50
2023-02-17T16:19:50.260Z,11.10
2023-02-17T16:22:18.152Z,12.37
2023-02-17T16:24:47.461Z,12.37
2023-02-17T16:27:17.388Z,11.40
2023-02-17T16:29:45.468Z,12.67
2023-02-17T16:32:14.315Z,12.07
2023-02-17T16:34:42.824Z,12.50
2023-02-17T16:37:17.075Z,11.63
2023-02-17T16:39:45.739Z,12.73
2023-02-17T16:42:15.842Z,12.13
2023-02-17T16:44:44.230Z,10.37
2023-02-17T16:47:20.740Z,9.90
2023-02-17T16:49:50.328Z,9.37
2023-02-17T16:52:24.989Z,10.17
2023-02-17T16:54:53.167Z,7.93
2023-02-17T16:57:23.339Z,8.63
2023-02-17T16:59:51.215Z,10.83
2023-02-17T17:02:21.528Z,7.03
2023-02-17T17:04:49.622Z,6.87
2023-02-17T17:07:18.079Z,9.63
2023-02-17T17:10:06.722Z,9.50
2023-02-17T17:12:35.861Z,7.40
2023-02-17T17:15:04.042Z,5.77
2023-02-17T17:17:37.442Z,4.90
2023-02-17T17:20:05.808Z,6.87
2023-02-17T17:22:33.530Z,6.13
2023-02-17T17:25:01.306Z,5.83
2023-02-17T17:27:29.076Z,9.17
2023-02-17T17:29:58.283Z,6.73
2023-02-17T17:32:26.421Z,13.70
2023-02-17T17:34:55.195Z,7.67
2023-02-17T17:37:23.037Z,9.83
2023-02-17T17:39:50.963Z,6.60
2023-02-17T17:42:18.849Z,7.53
2023-02-17T17:44:46.725Z,5.67
2023-02-17T17:47:29.397Z,6.10
2023-02-17T17:49:58.001Z,8.13
2023-02-17T17:52:25.924Z,5.93
2023-02-17T17:54:53.740Z,5.63
2023-02-17T17:57:22.498Z,7.20
2023-02-17T17:59:50.258Z,5.40
2023-02-17T18:02:19.535Z,5.03
2023-02-17T18:04:47.802Z,6.77
2023-02-17T18:07:15.965Z,5.63
2023-02-17T18:09:44.134Z,5.83
2023-02-17T18:12:16.285Z,10.73
2023-02-17T18:14:45.285Z,9.10
2023-02-17T18:17:18.109Z,6.40
2023-02-17T18:19:48.761Z,4.23
2023-02-17T18:22:17.724Z,5.03
2023-02-17T18:24:47.475Z,5.43
2023-02-17T18:27:15.911Z,6.63
2023-02-17T18:29:44.838Z,7.73
2023-02-17T18:32:12.852Z,6.07
2023-02-17T18:34:40.556Z,7.27
2023-02-17T18:37:09.881Z,6.13
2023-02-17T18:39:37.603Z,8.33
2023-02-17T18:42:06.759Z,7.03
2023-02-17T18:44:35.020Z,7.03
2023-02-17T18:47:02.767Z,6.30
2023-02-17T18:49:30.824Z,14.13
2023-02-17T18:51:58.671Z,3.90
2023-02-17T18:54:28.292Z,6.87
2023-02-17T18:56:56.163Z,6.43
2023-02-17T18:59:24.308Z,6.40
2023-02-17T19:01:52.246Z,5.17
2023-02-17T19:04:19.996Z,8.50
2023-02-17T19:06:47.926Z,5.17
2023-02-17T19:09:15.858Z,7.17
2023-02-17T19:11:45.094Z,5.13
2023-02-17T19:14:13.441Z,6.43
2023-02-17T19:16:41.349Z,6.17
2023-02-17T19:19:09.131Z,5.37
2023-02-17T19:21:36.962Z,6.50
2023-02-17T19:24:05.140Z,3.73
2023-02-17T19:26:34.166Z,7.73
2023-02-17T19:29:03.628Z,2.80
2023-02-17T19:31:31.664Z,3.90
2023-02-17T19:33:59.638Z,8.20
2023-02-17T19:36:27.701Z,3.90
2023-02-17T19:38:57.117Z,6.03
2023-02-17T19:41:25.284Z,6.80
2023-02-17T19:43:53.106Z,6.90
2023-02-17T19:46:24.319Z,8.53
2023-02-17T19:48:59.526Z,5.63
2023-02-17T19:51:27.521Z,5.07
2023-02-17T19:53:55.270Z,6.47
2023-02-17T19:56:44.026Z,5.90
2023-02-17T19:59:29.808Z,5.60
2023-02-17T20:01:59.091Z,4.30
2023-02-17T20:04:27.188Z,5.80
2023-02-17T20:06:55.179Z,9.67
2023-02-17T20:09:24.229Z,5.33
2023-02-17T20:11:53.521Z,7.27
2023-02-17T20:14:22.447Z,7.70
2023-02-17T20:16:53.165Z,12.37
2023-02-17T20:19:22.513Z,5.37
2023-02-17T20:21:50.396Z,3.93
2023-02-17T20:24:18.406Z,3.67
2023-02-17T20:26:47.562Z,5.03
2023-02-17T20:29:15.425Z,11.57
2023-02-17T20:31:43.806Z,5.60
2023-02-17T20:34:26.972Z,7.93
2023-02-17T20:36:55.032Z,11.03
2023-02-17T20:39:24.010Z,7.90
2023-02-17T20:41:52.083Z,4.47
2023-02-17T20:44:20.045Z,2.03
2023-02-17T20:46:48.189Z,13.00
2023-02-17T20:49:16.550Z,7.63
2023-02-17T20:51:46.395Z,6.93
2023-02-17T20:54:14.562Z,5.97
2023-02-17T20:56:46.168Z,6.80
2023-02-17T20:59:14.292Z,7.87
2023-02-17T21:01:43.140Z,7.57
2023-02-17T21:04:13.985Z,6.37
2023-02-17T21:06:43.052Z,9.07
2023-02-17T21:09:14.916Z,5.57
2023-02-17T21:11:43.037Z,5.37
2023-02-17T21:14:11.413Z,5.27
2023-02-17T21:16:39.863Z,7.97
2023-02-17T21:19:08.125Z,6.83
2023-02-17T21:21:36.434Z,8.33
2023-02-17T21:24:04.821Z,8.83
2023-02-17T21:26:34.888Z,5.43
2023-02-17T21:29:03.486Z,7.30
2023-02-17T21:31:32.000Z,10.77
2023-02-17T21:34:00.741Z,12.97
2023-02-17T21:36:29.478Z,11.53
2023-02-17T21:38:57.705Z,4.83
2023-02-17T21:41:30.385Z,5.23
2023-02-17T21:44:18.133Z,8.43
2023-02-17T21:46:46.571Z,6.77
2023-02-17T21:49:15.390Z,7.53
2023-02-17T21:51:43.243Z,8.10
2023-02-17T21:54:11.683Z,11.73
2023-02-17T21:56:39.566Z,3.87
2023-02-17T21:59:09.364Z,10.90
2023-02-17T22:01:37.385Z,7.70
2023-02-17T22:04:05.583Z,8.90
2023-02-17T22:06:35.527Z,9.70
2023-02-17T22:09:04.554Z,6.33
2023-02-17T22:11:34.851Z,9.30
2023-02-17T22:14:04.383Z,9.07
2023-02-17T22:16:36.643Z,5.73
2023-02-17T22:19:05.542Z,10.93
2023-02-17T22:21:33.697Z,8.90
2023-02-17T22:24:02.684Z,8.67
2023-02-17T22:26:31.442Z,9.70
2023-02-17T22:28:59.737Z,6.13
2023-02-17T22:31:29.931Z,6.73
2023-02-17T22:34:01.337Z,9.63
2023-02-17T22:36:31.937Z,10.53
2023-02-17T22:39:00.117Z,5.63
2023-02-17T22:41:28.112Z,7.57
2023-02-17T22:43:56.068Z,8.60
2023-02-17T22:46:26.993Z,7.57
2023-02-17T22:48:56.391Z,9.67
2023-02-17T22:51:28.007Z,6.73
2023-02-17T22:53:56.304Z,5.97
2023-02-17T22:56:24.960Z,6.50
2023-02-17T22:58:56.250Z,4.37
2023-02-17T23:01:25.490Z,8.13
2023-02-17T23:03:54.982Z,20.07
2023-02-17T23:06:26.542Z,5.33
2023-02-17T23:08:55.170Z,11.93
2023-02-17T23:11:39.820Z,8.70
2023-02-17T23:14:08.788Z,11.93
2023-02-17T23:16:36.766Z,8.17
2023-02-17T23:19:07.186Z,15.43
2023-02-17T23:21:37.268Z,10.80
2023-02-17T23:24:05.741Z,10.43
2023-02-17T23:26:33.719Z,7.03
2023-02-17T23:29:01.466Z,9.67
2023-02-17T23:31:29.753Z,7.57
2023-02-17T23:33:57.568Z,9.80
2023-02-17T23:36:25.428Z,7.73
2023-02-17T23:38:55.669Z,7.97
2023-02-17T23:41:23.626Z,11.77
2023-02-17T23:43:51.450Z,15.00
2023-02-17T23:46:20.516Z,11.13
2023-02-17T23:48:48.427Z,10.23
2023-02-17T23:51:17.824Z,14.27
2023-02-17T23:53:45.986Z,6.97
2023-02-17T23:56:19.489Z,14.50
2023-02-17T23:58:47.451Z,15.47
